Time;durP1;ratioP1;P1;durP2;ratioP2;P2;SDS_P1;SDS_P2;PMS_P1;PMS_P2;Temp;Humidity;BMP_temperature;BMP_pressure;BME280_temperature;BME280_humidity;BME280_pressure;Samples;Min_cycle;Max_cycle;Signal;HPM_P1;HPM_P2
2023/05/05 00:01:06;;;;;;;12.00;10.70;;;;;;;16.09;100.00;101271.13;5261538;28;20051;-66
2023/05/05 00:03:38;;;;;;;14.43;11.07;;;;;;;16.07;100.00;101268.59;5265479;28;20144;-66
2023/05/05 00:06:09;;;;;;;11.73;9.95;;;;;;;16.01;100.00;101261.09;5261611;28;20041;-66
2023/05/05 00:08:41;;;;;;;15.23;11.15;;;;;;;15.94;100.00;101267.19;5265751;28;20053;-66
2023/05/05 00:11:12;;;;;;;13.93;11.25;;;;;;;15.90;100.00;101265.75;5263260;28;20032;-66
2023/05/05 00:13:43;;;;;;;16.02;11.77;;;;;;;15.88;100.00;101274.81;5265941;28;20025;-66
2023/05/05 00:16:15;;;;;;;16.23;11.30;;;;;;;15.87;100.00;101264.19;5262148;28;20026;-66
2023/05/05 00:18:46;;;;;;;16.55;12.25;;;;;;;15.84;100.00;101273.41;5266593;28;20083;-66
2023/05/05 00:21:18;;;;;;;14.15;11.27;;;;;;;15.83;100.00;101285.16;5260782;28;20105;-66
2023/05/05 00:23:49;;;;;;;15.15;12.25;;;;;;;15.81;100.00;101281.75;5266094;28;20457;-66
2023/05/05 00:26:20;;;;;;;14.82;11.60;;;;;;;15.77;100.00;101283.03;5266616;28;20029;-66
2023/05/05 00:28:52;;;;;;;17.08;12.40;;;;;;;15.72;100.00;101279.88;5261017;28;20058;-66
2023/05/05 00:31:23;;;;;;;15.93;12.70;;;;;;;15.68;100.00;101281.16;5261245;28;20073;-66
2023/05/05 00:33:55;;;;;;;15.48;13.02;;;;;;;15.63;100.00;101278.03;5263001;28;20678;-65
2023/05/05 00:36:27;;;;;;;15.25;12.68;;;;;;;15.56;100.00;101263.44;5266762;28;20028;-66
2023/05/05 00:38:58;;;;;;;15.02;13.05;;;;;;;15.54;100.00;101270.81;5261876;28;20112;-66
2023/05/05 00:41:30;;;;;;;15.60;13.27;;;;;;;15.52;100.00;101273.63;5266250;28;20016;-66
2023/05/05 00:44:02;;;;;;;16.85;13.00;;;;;;;15.47;100.00;101274.06;5263332;28;20333;-65
2023/05/05 00:46:34;;;;;;;17.13;13.82;;;;;;;15.47;100.00;101287.50;5263763;28;20027;-66
2023/05/05 00:49:05;;;;;;;17.15;13.60;;;;;;;15.41;100.00;101290.72;5261715;28;20029;-65
2023/05/05 00:51:37;;;;;;;15.70;13.98;;;;;;;15.39;100.00;101294.53;5259102;28;20032;-65
2023/05/05 00:54:08;;;;;;;17.67;14.48;;;;;;;15.35;100.00;101293.13;5254874;28;20573;-66
2023/05/05 00:56:40;;;;;;;20.13;14.68;;;;;;;15.32;100.00;101293.38;5263141;28;20032;-66
2023/05/05 00:59:11;;;;;;;17.60;13.75;;;;;;;15.27;100.00;101296.50;5261276;28;20028;-66
2023/05/05 01:01:42;;;;;;;19.38;15.63;;;;;;;15.26;100.00;101282.22;5262141;28;20029;-66
2023/05/05 01:04:14;;;;;;;16.35;14.57;;;;;;;15.21;100.00;101286.31;5263205;28;20044;-65
2023/05/05 01:06:55;;;;;;;17.20;14.57;;;;;;;15.21;100.00;101295.22;5265759;28;20073;-66
2023/05/05 01:09:58;;;;;;;16.38;14.25;;;;;;;15.14;100.00;101293.19;5262692;28;20621;-65
2023/05/05 01:12:42;;;;;;;21.45;15.73;;;;;;;15.08;100.00;101298.13;5263877;28;20631;-66
2023/05/05 01:15:17;;;;;;;18.00;15.02;;;;;;;15.05;100.00;101298.41;5265833;28;20044;-65
2023/05/05 01:18:01;;;;;;;17.83;15.85;;;;;;;15.00;100.00;101289.06;5258376;28;20040;-65
2023/05/05 01:20:43;;;;;;;18.48;15.75;;;;;;;14.96;100.00;101293.84;5261547;28;20454;-66
2023/05/05 01:23:41;;;;;;;20.65;15.23;;;;;;;14.96;100.00;101299.22;5262422;28;20454;-66
2023/05/05 01:26:15;;;;;;;17.85;15.63;;;;;;;15.00;100.00;101287.22;5252493;28;20141;-65
2023/05/05 01:29:01;;;;;;;;;;;;;;;15.07;100.00;101274.94;5263281;28;20497;-65
2023/05/05 01:31:50;;;;;;;17.52;14.63;;;;;;;15.06;100.00;101278.59;5262307;28;19927;-66
2023/05/05 01:34:49;;;;;;;17.88;14.93;;;;;;;15.02;100.00;101287.94;5262188;28;20083;-66
2023/05/05 01:37:35;;;;;;;17.88;14.55;;;;;;;15.00;100.00;101299.81;5264431;28;20058;-66
2023/05/05 01:40:09;;;;;;;18.65;14.77;;;;;;;14.92;100.00;101296.91;5259886;28;20048;-65
2023/05/05 01:42:43;;;;;;;18.90;16.17;;;;;;;14.85;100.00;101291.25;5264317;28;20659;-65
2023/05/05 01:45:17;;;;;;;19.95;15.13;;;;;;;14.87;100.00;101289.28;5271542;28;20028;-66
2023/05/05 01:47:51;;;;;;;18.13;15.07;;;;;;;14.84;100.00;101284.16;5266410;28;20036;-66
2023/05/05 01:50:25;;;;;;;19.30;15.45;;;;;;;14.84;100.00;101284.16;5266879;28;20429;-65
2023/05/05 01:52:57;;;;;;;;;;;;;;;14.92;100.00;101291.53;5271430;28;20139;-66
2023/05/05 01:55:31;;;;;;;18.23;15.10;;;;;;;14.73;100.00;101287.81;5265449;28;19916;-66
2023/05/05 01:58:05;;;;;;;16.25;14.55;;;;;;;14.59;100.00;101288.97;5262824;28;20059;-65
2023/05/05 02:00:37;;;;;;;17.42;14.77;;;;;;;14.55;100.00;101295.56;5261074;28;20021;-66
2023/05/05 02:03:12;;;;;;;18.00;15.15;;;;;;;14.53;100.00;101292.16;5268424;28;20455;-66
2023/05/05 02:05:46;;;;;;;18.80;15.55;;;;;;;14.40;100.00;101304.94;5262428;28;20541;-66
2023/05/05 02:08:19;;;;;;;19.38;15.32;;;;;;;14.32;100.00;101305.59;5267319;28;20028;-66
2023/05/05 02:10:52;;;;;;;20.42;16.65;;;;;;;14.24;100.00;101297.34;5262031;28;20094;-65
2023/05/05 02:13:25;;;;;;;19.25;16.40;;;;;;;14.11;100.00;101303.78;5267686;28;20749;-65
2023/05/05 02:15:57;;;;;;;19.60;17.38;;;;;;;14.23;100.00;101307.25;5262064;28;20468;-65
2023/05/05 02:18:32;;;;;;;18.55;15.60;;;;;;;14.04;100.00;101304.41;5264484;28;20036;-65
2023/05/05 02:21:03;;;;;;;19.88;17.30;;;;;;;14.00;100.00;101305.63;5259720;28;20028;-65
2023/05/05 02:23:35;;;;;;;18.30;16.27;;;;;;;13.88;100.00;101312.88;5263833;28;20314;-65
2023/05/05 02:26:09;;;;;;;22.27;16.83;;;;;;;13.81;100.00;101317.91;5255107;28;20033;-65
2023/05/05 02:28:51;;;;;;;21.45;16.48;;;;;;;13.84;100.00;101319.47;5260944;28;20021;-65
2023/05/05 02:31:26;;;;;;;21.52;17.23;;;;;;;13.70;100.00;101325.97;5261622;28;20071;-65
2023/05/05 02:34:00;;;;;;;19.70;17.35;;;;;;;13.70;100.00;101320.63;5262065;28;20036;-66
2023/05/05 02:36:35;;;;;;;19.02;16.38;;;;;;;13.66;100.00;101329.91;5263659;28;20098;-66
2023/05/05 02:39:13;;;;;;;22.23;16.88;;;;;;;13.51;100.00;101327.47;5268634;28;20028;-65
2023/05/05 02:41:48;;;;;;;21.42;17.30;;;;;;;13.50;100.00;101332.94;5261913;28;20017;-66
2023/05/05 02:44:23;;;;;;;19.75;17.05;;;;;;;13.45;100.00;101341.38;5265567;28;20124;-66
2023/05/05 02:46:56;;;;;;;20.77;17.90;;;;;;;13.47;100.00;101350.16;5264395;28;20029;-66
2023/05/05 02:49:27;;;;;;;21.75;17.63;;;;;;;13.42;100.00;101352.34;5261942;28;20032;-66
2023/05/05 02:51:59;;;;;;;19.70;17.25;;;;;;;13.34;100.00;101341.38;5261135;28;20078;-66
2023/05/05 02:54:32;;;;;;;22.55;17.40;;;;;;;13.38;100.00;101342.00;5263449;28;20033;-65
2023/05/05 02:57:03;;;;;;;19.55;16.30;;;;;;;13.31;100.00;101338.97;5260444;28;20028;-66
2023/05/05 02:59:40;;;;;;;20.73;16.40;;;;;;;13.21;100.00;101346.00;5263768;28;20371;-66
2023/05/05 03:02:29;;;;;;;22.00;17.20;;;;;;;13.18;100.00;101339.06;5263438;28;20147;-66
2023/05/05 03:05:09;;;;;;;18.88;16.20;;;;;;;13.09;100.00;101334.44;5262229;28;20036;-66
2023/05/05 03:08:19;;;;;;;18.65;15.32;;;;;;;13.00;100.00;101338.69;5261921;28;20096;-66
2023/05/05 03:11:02;;;;;;;17.92;15.93;;;;;;;12.98;100.00;101334.41;5243193;28;20052;-65
2023/05/05 03:13:35;;;;;;;20.35;15.93;;;;;;;12.93;100.00;101348.19;5263395;28;20028;-66
2023/05/05 03:16:07;;;;;;;20.70;16.13;;;;;;;12.94;100.00;101344.50;5264305;28;20037;-66
2023/05/05 03:18:41;;;;;;;20.20;16.92;;;;;;;12.97;100.00;101341.59;5268527;28;20081;-66
2023/05/05 03:21:13;;;;;;;20.33;16.48;;;;;;;12.92;100.00;101346.47;5273135;28;20531;-66
2023/05/05 03:23:45;;;;;;;19.63;15.85;;;;;;;12.84;100.00;101346.22;5281185;28;20231;-66
2023/05/05 03:26:17;;;;;;;19.10;14.85;;;;;;;12.79;100.00;101361.78;5271900;28;20444;-66
2023/05/05 03:28:49;;;;;;;19.55;16.08;;;;;;;12.70;100.00;101355.34;5267870;28;20039;-65
2023/05/05 03:31:20;;;;;;;20.00;16.23;;;;;;;12.79;100.00;101356.44;5273468;28;20025;-66
2023/05/05 03:33:51;;;;;;;19.27;16.30;;;;;;;12.65;100.00;101357.50;5267507;28;20028;-66
2023/05/05 03:36:23;;;;;;;17.20;15.40;;;;;;;12.59;100.00;101361.50;5265235;28;20032;-66
2023/05/05 03:38:54;;;;;;;18.85;14.70;;;;;;;12.52;100.00;101355.78;5265376;28;20401;-66
2023/05/05 03:41:26;;;;;;;22.60;16.30;;;;;;;12.50;100.00;101352.38;5270371;28;20043;-66
2023/05/05 03:43:58;;;;;;;19.15;15.38;;;;;;;12.43;100.00;101352.97;5267671;28;20032;-65
2023/05/05 03:46:29;;;;;;;20.05;16.30;;;;;;;12.44;100.00;101360.00;5269401;28;20024;-66
2023/05/05 03:49:01;;;;;;;21.05;16.63;;;;;;;12.36;100.00;101364.09;5267327;28;20032;-65
2023/05/05 03:51:32;;;;;;;18.92;15.35;;;;;;;12.37;100.00;101362.31;5295420;28;20513;-66
2023/05/05 03:54:03;;;;;;;21.33;17.17;;;;;;;12.31;100.00;101354.72;5263062;28;20084;-66
2023/05/05 03:56:35;;;;;;;23.30;17.75;;;;;;;12.34;100.00;101368.72;5264099;28;20024;-66
2023/05/05 03:59:07;;;;;;;20.15;17.00;;;;;;;12.28;100.00;101371.03;5266328;28;20109;-66
2023/05/05 04:01:39;;;;;;;20.10;16.73;;;;;;;12.25;100.00;101369.41;5264785;28;20029;-66
2023/05/05 04:04:10;;;;;;;20.83;16.52;;;;;;;12.24;100.00;101370.41;5261849;28;20056;-66
2023/05/05 04:06:41;;;;;;;21.52;17.40;;;;;;;12.23;100.00;101376.69;5259436;28;20743;-66
2023/05/05 04:09:13;;;;;;;21.10;16.48;;;;;;;12.21;100.00;101369.78;5261498;28;20755;-65
2023/05/05 04:11:44;;;;;;;19.27;15.80;;;;;;;12.17;100.00;101379.84;5261660;28;20029;-65
2023/05/05 04:14:16;;;;;;;18.50;15.20;;;;;;;12.07;100.00;101379.69;5267475;28;20040;-65
2023/05/05 04:16:47;;;;;;;18.25;15.00;;;;;;;12.07;100.00;101377.00;5268944;28;20032;-65
2023/05/05 04:19:18;;;;;;;18.85;15.10;;;;;;;12.03;100.00;101385.38;5261736;28;20114;-66
2023/05/05 04:21:50;;;;;;;19.27;14.52;;;;;;;12.02;100.00;101383.66;5266641;28;20017;-65
2023/05/05 04:24:23;;;;;;;18.13;14.25;;;;;;;11.96;100.00;101390.31;5260806;28;20071;-65
2023/05/05 04:26:55;;;;;;;17.70;14.27;;;;;;;11.95;100.00;101381.44;5258719;28;20052;-66
2023/05/05 04:29:26;;;;;;;17.50;14.63;;;;;;;11.94;100.00;101379.72;5262068;28;20143;-65
2023/05/05 04:31:57;;;;;;;16.83;13.02;;;;;;;11.93;100.00;101388.72;5260572;28;20394;-65
2023/05/05 04:34:29;;;;;;;18.42;14.15;;;;;;;11.91;100.00;101393.34;5263809;28;20059;-65
2023/05/05 04:37:01;;;;;;;19.83;15.23;;;;;;;11.92;100.00;101395.03;5264754;28;20044;-66
2023/05/05 04:39:32;;;;;;;17.65;13.98;;;;;;;11.89;100.00;101384.56;5270294;28;20063;-65
2023/05/05 04:42:04;;;;;;;17.95;14.07;;;;;;;11.88;100.00;101388.16;5263725;28;20032;-65
2023/05/05 04:44:35;;;;;;;16.40;14.45;;;;;;;11.89;100.00;101389.91;5267501;28;20029;-66
2023/05/05 04:47:07;;;;;;;15.90;13.55;;;;;;;11.90;100.00;101394.28;5264899;28;20032;-65
2023/05/05 04:49:39;;;;;;;17.00;13.70;;;;;;;11.84;100.00;101399.22;5262669;28;20051;-66
2023/05/05 04:52:13;;;;;;;19.27;13.93;;;;;;;11.81;100.00;101397.59;5259692;28;20033;-65
2023/05/05 04:54:44;;;;;;;15.48;13.48;;;;;;;11.86;100.00;101390.09;5264056;28;20032;-65
2023/05/05 04:57:16;;;;;;;16.35;13.20;;;;;;;11.83;100.00;101390.34;5261472;28;20060;-65
2023/05/05 04:59:47;;;;;;;16.83;13.63;;;;;;;11.81;100.00;101386.91;5263760;28;20028;-66
2023/05/05 05:02:19;;;;;;;17.02;13.82;;;;;;;11.80;100.00;101387.88;5263364;28;20021;-65
2023/05/05 05:04:50;;;;;;;16.95;13.43;;;;;;;11.84;100.00;101380.50;5260724;28;20052;-65
2023/05/05 05:07:22;;;;;;;18.55;13.65;;;;;;;11.80;100.00;101377.19;5267908;28;20032;-65
2023/05/05 05:09:53;;;;;;;17.45;14.45;;;;;;;11.92;100.00;101378.97;5263223;28;20024;-65
2023/05/05 05:12:25;;;;;;;16.35;14.07;;;;;;;11.81;100.00;101381.56;5262618;28;20027;-65
2023/05/05 05:14:56;;;;;;;16.23;14.15;;;;;;;11.88;100.00;101376.63;5261724;28;20021;-65
2023/05/05 05:17:29;;;;;;;22.23;15.15;;;;;;;11.82;100.00;101366.38;5262596;28;21203;-66
2023/05/05 05:20:03;;;;;;;18.58;15.15;;;;;;;11.82;100.00;101372.59;5263087;28;20027;-65
2023/05/05 05:22:37;;;;;;;18.08;15.10;;;;;;;11.86;100.00;101375.88;5257250;28;20052;-66
2023/05/05 05:25:09;;;;;;;18.08;15.25;;;;;;;11.86;100.00;101379.41;5263540;28;20040;-65
2023/05/05 05:27:40;;;;;;;18.10;14.70;;;;;;;11.85;100.00;101376.84;5263471;28;20032;-65
2023/05/05 05:30:12;;;;;;;18.95;15.10;;;;;;;11.89;100.00;101381.00;5266787;28;20513;-65
2023/05/05 05:32:43;;;;;;;19.65;15.77;;;;;;;11.96;100.00;101375.09;5265155;28;20025;-65
2023/05/05 05:35:15;;;;;;;18.05;15.20;;;;;;;11.93;100.00;101380.72;5270108;28;20508;-65
2023/05/05 05:37:46;;;;;;;20.92;16.52;;;;;;;11.94;100.00;101389.56;5264401;28;20021;-66
2023/05/05 05:40:18;;;;;;;18.25;15.68;;;;;;;11.96;100.00;101393.84;5259713;28;20077;-65
2023/05/05 05:42:49;;;;;;;19.65;15.95;;;;;;;12.11;100.00;101396.34;5264203;28;20021;-65
2023/05/05 05:45:21;;;;;;;18.38;15.23;;;;;;;12.03;100.00;101412.13;5274683;28;20050;-65
2023/05/05 05:47:52;;;;;;;19.60;16.27;;;;;;;12.04;100.00;101429.88;5271625;28;20483;-65
2023/05/05 05:50:26;;;;;;;21.02;15.90;;;;;;;12.08;100.00;101436.69;5267642;28;20029;-65
2023/05/05 05:52:57;;;;;;;20.33;16.52;;;;;;;12.15;100.00;101437.97;5274301;28;20056;-66
2023/05/05 05:55:29;;;;;;;20.02;16.10;;;;;;;12.25;100.00;101448.84;5270380;28;20031;-65
2023/05/05 05:58:00;;;;;;;19.63;15.82;;;;;;;12.24;100.00;101452.50;5266906;28;20116;-66
2023/05/05 06:00:32;;;;;;;21.15;16.25;;;;;;;12.28;100.00;101452.13;5264128;28;20194;-65
2023/05/05 06:03:03;;;;;;;18.02;15.07;;;;;;;12.45;100.00;101458.06;5266791;28;20052;-65
2023/05/05 06:05:35;;;;;;;18.20;15.15;;;;;;;12.44;100.00;101459.03;5272201;28;20036;-65
2023/05/05 06:08:06;;;;;;;20.75;15.52;;;;;;;12.55;100.00;101469.78;5274912;28;20486;-65
2023/05/05 06:10:38;;;;;;;18.48;15.07;;;;;;;12.57;100.00;101464.31;5273085;28;20417;-65
2023/05/05 06:13:10;;;;;;;18.63;15.23;;;;;;;12.66;100.00;101474.34;5266712;28;20028;-66
2023/05/05 06:15:41;;;;;;;17.80;14.02;;;;;;;12.75;100.00;101466.47;5265869;28;20366;-66
2023/05/05 06:18:12;;;;;;;17.70;14.23;;;;;;;13.01;100.00;101470.81;5262416;28;20445;-65
2023/05/05 06:20:44;;;;;;;17.90;15.18;;;;;;;12.93;100.00;101474.91;5261865;28;20377;-65
2023/05/05 06:23:15;;;;;;;20.27;14.70;;;;;;;13.06;100.00;101482.88;5265054;28;20785;-66
2023/05/05 06:25:47;;;;;;;20.52;14.88;;;;;;;13.23;100.00;101475.34;5269147;28;20035;-65
2023/05/05 06:28:19;;;;;;;20.05;16.20;;;;;;;13.35;100.00;101479.78;5267402;28;20458;-65
2023/05/05 06:30:50;;;;;;;22.10;16.88;;;;;;;13.35;100.00;101477.13;5269816;28;20039;-65
2023/05/05 06:33:22;;;;;;;19.85;16.40;;;;;;;13.47;100.00;101480.66;5268977;28;20101;-65
2023/05/05 06:35:53;;;;;;;19.77;16.10;;;;;;;13.55;100.00;101472.84;5269076;28;20039;-65
2023/05/05 06:38:25;;;;;;;22.38;15.70;;;;;;;13.68;100.00;101467.38;5274948;28;20021;-65
2023/05/05 06:40:57;;;;;;;20.60;17.00;;;;;;;13.82;100.00;101469.78;5273944;28;20016;-65
2023/05/05 06:43:28;;;;;;;20.70;15.90;;;;;;;13.80;100.00;101471.75;5262707;28;20069;-65
2023/05/05 06:46:00;;;;;;;19.73;15.32;;;;;;;13.89;100.00;101476.38;5269446;28;20405;-65
2023/05/05 06:48:31;;;;;;;20.50;15.88;;;;;;;14.00;100.00;101475.53;5271692;28;20466;-65
2023/05/05 06:51:03;;;;;;;20.38;16.17;;;;;;;14.11;100.00;101475.50;5271402;28;20024;-65
2023/05/05 06:53:34;;;;;;;18.63;14.30;;;;;;;14.15;100.00;101472.56;5272792;28;20475;-65
2023/05/05 06:56:06;;;;;;;19.23;14.27;;;;;;;14.24;100.00;101472.66;5271347;28;20116;-65
2023/05/05 06:58:37;;;;;;;17.90;14.30;;;;;;;14.37;100.00;101471.66;5271621;28;20036;-65
2023/05/05 07:01:09;;;;;;;17.90;13.50;;;;;;;14.41;100.00;101471.28;5272479;28;20028;-65
2023/05/05 07:03:40;;;;;;;18.05;13.80;;;;;;;14.49;100.00;101473.31;5269568;28;20106;-65
2023/05/05 07:06:12;;;;;;;16.75;12.77;;;;;;;14.56;100.00;101476.38;5270219;28;20021;-65
2023/05/05 07:08:43;;;;;;;14.80;11.65;;;;;;;14.65;100.00;101479.16;5270249;28;20029;-65
2023/05/05 07:11:14;;;;;;;14.00;10.85;;;;;;;14.79;100.00;101483.38;5272451;28;20055;-65
2023/05/05 07:13:48;;;;;;;12.23;9.70;;;;;;;14.85;100.00;101488.22;5270770;28;20119;-66
2023/05/05 07:16:19;;;;;;;13.25;10.38;;;;;;;14.99;100.00;101481.66;5267368;28;20028;-65
2023/05/05 07:18:51;;;;;;;12.48;9.30;;;;;;;15.24;100.00;101488.47;5270859;28;20032;-65
2023/05/05 07:21:22;;;;;;;11.60;8.43;;;;;;;15.47;100.00;101483.81;5267983;28;20037;-66
2023/05/05 07:23:53;;;;;;;12.07;8.82;;;;;;;15.65;100.00;101484.03;5269244;28;20017;-65
2023/05/05 07:26:25;;;;;;;12.35;8.80;;;;;;;15.79;100.00;101485.53;5268299;28;20024;-65
2023/05/05 07:28:57;;;;;;;13.30;8.38;;;;;;;15.89;100.00;101485.56;5274562;28;20060;-66
2023/05/05 07:31:29;;;;;;;13.05;8.50;;;;;;;15.99;100.00;101486.47;5268634;28;20437;-65
2023/05/05 07:34:00;;;;;;;11.90;8.35;;;;;;;16.09;100.00;101481.13;5266212;28;20166;-65
2023/05/05 07:36:32;;;;;;;11.60;8.70;;;;;;;16.18;100.00;101482.94;5271489;28;20036;-65
2023/05/05 07:39:03;;;;;;;11.98;8.18;;;;;;;16.21;100.00;101480.00;5268938;28;20067;-65
2023/05/05 07:41:35;;;;;;;12.63;8.15;;;;;;;16.24;100.00;101473.47;5274929;28;20069;-65
2023/05/05 07:44:07;;;;;;;11.05;7.55;;;;;;;16.45;100.00;101465.28;5271935;28;20032;-65
2023/05/05 07:46:38;;;;;;;10.68;6.80;;;;;;;16.53;100.00;101470.84;5267195;28;20024;-66
2023/05/05 07:49:10;;;;;;;12.00;7.57;;;;;;;16.57;100.00;101466.88;5267648;28;20573;-66
2023/05/05 07:51:41;;;;;;;10.10;7.10;;;;;;;16.67;100.00;101467.69;5268023;28;20036;-66
2023/05/05 07:54:12;;;;;;;11.18;7.43;;;;;;;16.75;100.00;101458.06;5271769;28;20034;-68
2023/05/05 07:56:44;;;;;;;11.02;7.93;;;;;;;16.79;100.00;101464.88;5268892;28;20570;-65
2023/05/05 07:59:15;;;;;;;12.52;7.75;;;;;;;16.93;100.00;101459.09;5261550;28;20933;-65
2023/05/05 08:01:47;;;;;;;11.68;7.65;;;;;;;17.00;100.00;101462.88;5271018;28;20033;-65
2023/05/05 08:04:18;;;;;;;10.70;6.05;;;;;;;17.16;100.00;101459.59;5301451;27;20059;-65
2023/05/05 08:06:50;;;;;;;14.50;8.23;;;;;;;17.20;100.00;101465.53;5315601;27;20088;-65
2023/05/05 08:09:21;;;;;;;12.13;7.65;;;;;;;17.28;100.00;101467.50;5311809;27;21350;-66
2023/05/05 08:11:52;;;;;;;9.60;6.72;;;;;;;17.28;100.00;101468.38;5313763;27;20024;-65
2023/05/05 08:14:24;;;;;;;9.77;6.32;;;;;;;17.38;100.00;101469.19;5311736;27;20473;-65
2023/05/05 08:16:55;;;;;;;9.57;5.80;;;;;;;17.40;100.00;101477.97;5307076;27;20051;-65
2023/05/05 08:19:27;;;;;;;11.88;6.70;;;;;;;17.42;100.00;101475.97;5302664;27;20031;-65
2023/05/05 08:21:58;;;;;;;10.05;6.35;;;;;;;17.48;100.00;101479.94;5302032;28;20128;-65
2023/05/05 08:24:29;;;;;;;9.77;5.88;;;;;;;17.62;100.00;101471.38;5303220;27;20035;-66
2023/05/05 08:27:01;;;;;;;8.73;4.63;;;;;;;17.77;100.00;101479.81;5296595;27;20100;-66
2023/05/05 08:29:32;;;;;;;7.38;4.30;;;;;;;17.91;100.00;101474.97;5301192;27;20028;-65
2023/05/05 08:32:04;;;;;;;7.45;4.05;;;;;;;18.12;100.00;101477.41;5307873;27;20126;-66
2023/05/05 08:34:35;;;;;;;8.40;4.53;;;;;;;18.18;100.00;101469.56;5313077;27;20518;-66
2023/05/05 08:37:07;;;;;;;8.30;4.22;;;;;;;18.30;100.00;101474.75;5308367;28;20515;-65
2023/05/05 08:39:38;;;;;;;5.25;3.58;;;;;;;18.37;100.00;101475.81;5308975;27;20032;-66
2023/05/05 08:42:09;;;;;;;6.40;3.17;;;;;;;18.39;100.00;101476.53;5307170;27;20016;-66
2023/05/05 08:44:41;;;;;;;7.45;3.10;;;;;;;18.43;100.00;101472.53;5309582;27;20642;-66
2023/05/05 08:47:14;;;;;;;8.13;4.43;;;;;;;18.41;100.00;101467.28;5324980;27;20126;-66
2023/05/05 08:49:46;;;;;;;6.38;3.78;;;;;;;18.43;100.00;101472.53;5308908;27;20130;-66
2023/05/05 08:52:26;;;;;;;8.88;3.38;;;;;;;18.44;100.00;101470.66;5315059;27;20392;-65
2023/05/05 08:55:12;;;;;;;7.05;3.55;;;;;;;18.46;100.00;101476.75;5311943;27;20114;-66
2023/05/05 08:58:03;;;;;;;6.35;3.50;;;;;;;18.48;100.00;101469.34;5311654;27;20150;-66
2023/05/05 09:00:35;;;;;;;7.13;3.38;;;;;;;18.51;100.00;101474.47;5310817;27;20208;-66
2023/05/05 09:03:07;;;;;;;7.53;3.85;;;;;;;18.50;100.00;101472.75;5303188;27;20636;-66
2023/05/05 09:05:41;;;;;;;6.78;3.78;;;;;;;18.50;100.00;101465.47;5266802;28;20036;-66
2023/05/05 09:08:12;;;;;;;6.07;3.38;;;;;;;18.48;100.00;101469.34;5271171;28;20032;-66
2023/05/05 09:10:44;;;;;;;5.90;3.42;;;;;;;18.49;100.00;101469.19;5267411;28;20058;-66
2023/05/05 09:13:16;;;;;;;9.50;3.72;;;;;;;18.53;100.00;101472.44;5270409;28;20020;-66
2023/05/05 09:15:47;;;;;;;9.65;3.45;;;;;;;18.58;100.00;101470.13;5265938;28;20028;-65
2023/05/05 09:18:18;;;;;;;8.52;3.28;;;;;;;18.68;100.00;101478.13;5271644;28;20490;-66
2023/05/05 09:20:50;;;;;;;8.15;3.58;;;;;;;18.75;100.00;101477.38;5267543;28;20905;-65
2023/05/05 09:23:21;;;;;;;7.55;3.60;;;;;;;18.80;100.00;101483.19;5268464;28;20097;-66
2023/05/05 09:26:07;;;;;;;6.15;3.08;;;;;;;18.84;100.00;101483.72;5267967;28;20035;-65
2023/05/05 09:28:50;;;;;;;6.07;3.30;;;;;;;18.85;100.00;101476.47;5266913;28;20032;-66
2023/05/05 09:31:21;;;;;;;7.93;3.38;;;;;;;18.86;100.00;101483.59;5260702;28;20029;-65
2023/05/05 09:33:53;;;;;;;6.53;3.28;;;;;;;18.84;100.00;101489.16;5268132;28;20114;-66
2023/05/05 09:36:46;;;;;;;6.25;3.40;;;;;;;18.87;100.00;101494.25;5268330;28;20027;-65
2023/05/05 09:39:18;;;;;;;7.70;4.03;;;;;;;18.80;100.00;101490.47;5266161;28;20052;-66
2023/05/05 09:41:50;;;;;;;7.05;3.67;;;;;;;18.75;100.00;101481.94;5270567;28;20017;-66
2023/05/05 09:44:37;;;;;;;9.93;4.20;;;;;;;18.78;100.00;101484.34;5264663;28;20129;-65
2023/05/05 09:47:08;;;;;;;7.30;3.80;;;;;;;18.67;100.00;101485.41;5270234;28;20039;-66
2023/05/05 09:49:39;;;;;;;9.68;4.35;;;;;;;18.60;100.00;101487.91;5270341;28;20032;-66
2023/05/05 09:52:15;;;;;;;8.25;3.92;;;;;;;18.52;100.00;101482.38;5266959;28;20250;-65
2023/05/05 09:54:53;;;;;;;9.27;3.72;;;;;;;18.49;100.00;101485.41;5262552;28;20036;-66
2023/05/05 09:57:30;;;;;;;8.48;3.65;;;;;;;18.47;100.00;101487.44;5265216;28;20035;-66
2023/05/05 10:00:03;;;;;;;6.93;2.88;;;;;;;18.44;100.00;101482.31;5269605;28;20457;-66
2023/05/05 10:02:37;;;;;;;6.10;3.13;;;;;;;18.39;100.00;101479.25;5265317;28;20128;-65
2023/05/05 10:05:13;;;;;;;6.03;2.70;;;;;;;18.34;100.00;101481.53;5265827;28;20568;-67
2023/05/05 10:07:46;;;;;;;8.68;3.42;;;;;;;18.29;100.00;101489.25;5269911;28;20399;-66
2023/05/05 10:10:18;;;;;;;6.47;3.63;;;;;;;18.16;100.00;101481.50;5268927;28;20028;-66
2023/05/05 10:12:49;;;;;;;8.02;3.45;;;;;;;18.01;100.00;101486.59;5266648;28;20050;-66
2023/05/05 10:15:21;;;;;;;9.18;4.05;;;;;;;17.87;100.00;101481.66;5265334;28;20058;-66
2023/05/05 10:17:55;;;;;;;9.77;4.03;;;;;;;17.82;100.00;101485.63;5265369;28;20407;-66
2023/05/05 10:20:26;;;;;;;5.70;3.65;;;;;;;17.76;100.00;101488.09;5265227;28;20124;-66
2023/05/05 10:23:01;;;;;;;7.18;4.20;;;;;;;17.71;100.00;101477.72;5267629;28;20028;-65
2023/05/05 10:25:40;;;;;;;10.15;4.40;;;;;;;17.58;100.00;101485.31;5264160;28;20056;-65
2023/05/05 10:28:20;;;;;;;10.60;4.95;;;;;;;17.54;100.00;101483.91;5266071;28;20046;-66
2023/05/05 10:30:55;;;;;;;10.15;4.65;;;;;;;17.54;100.00;101492.84;5268091;28;20028;-66
2023/05/05 10:33:36;;;;;;;10.48;4.85;;;;;;;17.46;100.00;101491.88;5272442;28;20040;-66
2023/05/05 10:36:08;;;;;;;9.88;5.38;;;;;;;17.42;100.00;101497.56;5267658;28;20028;-66
2023/05/05 10:38:41;;;;;;;10.95;5.72;;;;;;;17.31;100.00;101504.97;5265661;28;20036;-66
2023/05/05 10:41:14;;;;;;;11.93;7.07;;;;;;;17.19;100.00;101501.59;5263754;28;21056;-65
2023/05/05 10:43:46;;;;;;;11.87;7.83;;;;;;;17.12;100.00;101512.09;5268666;28;20539;-66
2023/05/05 10:46:18;;;;;;;10.65;7.43;;;;;;;16.93;100.00;101513.00;5269706;28;20318;-66
2023/05/05 10:49:00;;;;;;;12.07;6.65;;;;;;;16.87;100.00;101518.09;5272299;28;20028;-66
2023/05/05 10:51:56;;;;;;;11.07;6.00;;;;;;;16.83;100.00;101517.50;5267452;28;20032;-66
2023/05/05 10:54:45;;;;;;;11.20;6.03;;;;;;;16.74;100.00;101515.63;5262471;28;20039;-66
2023/05/05 10:57:21;;;;;;;10.32;5.88;;;;;;;16.60;100.00;101516.91;5252280;28;20056;-67
2023/05/05 10:59:53;;;;;;;9.27;5.25;;;;;;;16.51;100.00;101515.03;5260441;28;20507;-67
2023/05/05 11:02:25;;;;;;;7.93;5.18;;;;;;;16.37;100.00;101519.84;5263906;28;20035;-67
2023/05/05 11:05:08;;;;;;;9.98;6.03;;;;;;;16.22;100.00;101530.19;5260185;28;20052;-67
2023/05/05 11:07:41;;;;;;;11.32;6.03;;;;;;;16.15;100.00;101537.09;5267748;28;20454;-67
2023/05/05 11:10:14;;;;;;;13.00;7.88;;;;;;;16.07;100.00;101535.09;5257178;28;20028;-68
2023/05/05 11:12:56;;;;;;;10.33;7.10;;;;;;;16.01;100.00;101537.44;5266418;28;20040;-67
2023/05/05 11:15:28;;;;;;;11.93;7.22;;;;;;;15.95;100.00;101538.00;5269470;28;20051;-67
2023/05/05 11:18:01;;;;;;;14.27;8.20;;;;;;;15.92;100.00;101539.13;5273856;28;20222;-68
2023/05/05 11:20:35;;;;;;;12.77;8.55;;;;;;;15.86;100.00;101542.38;5265219;28;20051;-68
2023/05/05 11:23:07;;;;;;;13.82;9.10;;;;;;;15.89;100.00;101542.09;5268418;28;20036;-67
2023/05/05 11:25:39;;;;;;;10.02;6.90;;;;;;;15.72;100.00;101543.53;5271920;28;20035;-67
2023/05/05 11:28:24;;;;;;;12.07;8.23;;;;;;;15.58;100.00;101546.56;5273050;28;20123;-67
2023/05/05 11:30:55;;;;;;;11.32;7.07;;;;;;;15.48;100.00;101542.00;5271797;28;20034;-67
2023/05/05 11:33:37;;;;;;;12.80;8.63;;;;;;;15.43;100.00;101546.91;5270379;28;20097;-67
2023/05/05 11:36:11;;;;;;;9.27;5.63;;;;;;;15.34;100.00;101544.16;5265586;28;20433;-67